Labrador City, Canada
Current Conditions -  °F | °C
As of 11:45 PM on Monday 20 Oct 2014 (Local Time) from CYWK Reporting Station
Light Snow Light Snow  
Wind Chill: 27°   Ceiling: 4900
Heat Index: 34°   Visibility: 9mi
Dew Point: 32°   Wind: 8mph
Humidity: 93%   Direction: 350°N
Pressure: 29.61"   Gusts: 17mph
Location:  52.95°N, 66.91°W
Report Text: CYWK 210245Z AUTO 35007G15KT 9SM -SN OVC049 01/M00 A2961 RMK ICG SLP050
Loading
Personal Weather Stations






























Interactive Weather Map
Tropical Storm Tracking
New forecast layout! Learn more

10-Day Weather Forecast

Advertisements
Track Severe Weather on mobile